Time;durP1;ratioP1;P1;durP2;ratioP2;P2;SDS_P1;SDS_P2;PMS_P1;PMS_P2;Temp;Humidity;BMP_temperature;BMP_pressure;BME280_temperature;BME280_humidity;BME280_pressure;Samples;Min_cycle;Max_cycle;Signal;HPM_P1;HPM_P2
2022/07/31 00:00:15;;;;;;;8.90;4.90;;;;;;;25.18;39.53;100314.10;117298;1184;23602;-62
2022/07/31 00:02:43;;;;;;;9.60;5.00;;;;;;;25.16;39.33;100313.73;117287;1186;21893;-62
2022/07/31 00:05:10;;;;;;;9.40;5.80;;;;;;;25.16;39.41;100310.00;117341;1184;22621;-62
2022/07/31 00:07:37;;;;;;;8.30;5.90;;;;;;;25.14;39.47;100307.65;117039;1185;21881;-62
2022/07/31 00:10:05;;;;;;;12.50;6.60;;;;;;;25.12;39.36;100307.62;117272;1186;21857;-57
2022/07/31 00:12:33;;;;;;;10.60;6.20;;;;;;;25.10;39.47;100309.86;117023;1186;22625;-62
2022/07/31 00:15:02;;;;;;;11.70;6.50;;;;;;;25.08;39.28;100314.85;117021;1187;22727;-62
2022/07/31 00:17:31;;;;;;;;;;;;;;;25.07;39.25;100315.67;117296;1182;24180;-62
2022/07/31 00:19:58;;;;;;;9.90;6.70;;;;;;;25.05;39.27;100318.52;117014;1187;22001;-62
2022/07/31 00:22:25;;;;;;;7.40;5.90;;;;;;;25.02;39.29;100316.72;117169;1188;21848;-62
2022/07/31 00:24:52;;;;;;;7.50;5.70;;;;;;;25.01;39.20;100317.39;117013;1186;21858;-62
2022/07/31 00:27:19;;;;;;;11.20;6.00;;;;;;;24.99;39.23;100320.21;117035;1185;22991;-57
2022/07/31 00:29:45;;;;;;;8.90;6.00;;;;;;;24.97;39.19;100319.25;117036;1182;23564;-62
2022/07/31 00:32:12;;;;;;;13.00;6.40;;;;;;;24.96;39.23;100317.02;117197;1186;22814;-57
2022/07/31 00:34:41;;;;;;;12.50;6.10;;;;;;;24.95;39.23;100316.19;117352;1183;22928;-57
2022/07/31 00:37:08;;;;;;;9.90;5.60;;;;;;;24.94;39.16;100317.00;117179;1184;23528;-62
2022/07/31 00:39:35;;;;;;;11.40;6.50;;;;;;;24.94;39.17;100318.98;117086;1185;24753;-57
2022/07/31 00:42:03;;;;;;;8.40;5.80;;;;;;;24.93;39.15;100319.24;117364;1186;21973;-58
2022/07/31 00:44:29;;;;;;;11.70;5.90;;;;;;;24.92;39.11;100323.25;117315;1182;23563;-62
2022/07/31 00:46:57;;;;;;;7.80;5.10;;;;;;;24.90;38.95;100324.42;117252;1186;21902;-63
2022/07/31 00:49:26;;;;;;;7.70;5.80;;;;;;;24.90;39.07;100323.23;117217;1181;22940;-57
2022/07/31 00:52:03;;;;;;;8.90;5.80;;;;;;;24.89;39.20;100320.78;117006;1190;21852;-57
2022/07/31 00:54:30;;;;;;;10.80;5.40;;;;;;;24.87;39.14;100319.80;117051;1184;23338;-62
2022/07/31 00:56:57;;;;;;;8.40;5.40;;;;;;;24.87;39.18;100318.23;117062;1184;22926;-57
2022/07/31 00:59:27;;;;;;;11.10;5.80;;;;;;;24.86;39.15;100318.49;117272;1185;22919;-57
2022/07/31 01:01:54;;;;;;;8.50;5.40;;;;;;;24.85;39.17;100316.92;117117;1184;22964;-63
2022/07/31 01:04:21;;;;;;;9.30;5.20;;;;;;;24.84;39.17;100318.80;117286;1184;23567;-62
2022/07/31 01:06:48;;;;;;;8.50;4.60;;;;;;;24.83;39.12;100315.99;117353;1186;21905;-63
2022/07/31 01:09:15;;;;;;;8.30;5.60;;;;;;;24.82;39.08;100315.16;117211;1185;22945;-57
2022/07/31 01:11:49;;;;;;;12.80;4.80;;;;;;;24.82;39.07;100315.91;117012;1187;21945;-57
2022/07/31 01:14:17;;;;;;;7.90;4.60;;;;;;;24.80;39.12;100311.55;117251;1186;24197;-57
2022/07/31 01:16:45;;;;;;;8.60;4.40;;;;;;;24.78;39.22;100313.08;117121;1187;21853;-62
2022/07/31 01:19:31;;;;;;;7.90;4.40;;;;;;;24.77;39.17;100309.59;116967;1187;22811;-62
2022/07/31 01:22:27;;;;;;;8.60;4.60;;;;;;;24.75;39.19;100311.15;117117;1186;22319;-63
2022/07/31 01:25:38;;;;;;;7.60;4.20;;;;;;;24.73;39.07;100310.77;117269;1188;21848;-57
2022/07/31 01:28:48;;;;;;;7.00;4.30;;;;;;;24.71;39.09;100309.32;116997;1184;22916;-62
2022/07/31 01:31:20;;;;;;;9.90;4.50;;;;;;;24.68;39.22;100307.57;116997;1187;23577;-62
2022/07/31 01:34:02;;;;;;;8.70;4.70;;;;;;;24.65;39.34;100307.02;117260;1187;21865;-57
2022/07/31 01:36:33;;;;;;;7.30;4.50;;;;;;;24.62;39.10;100308.66;117072;1189;21848;-62
2022/07/31 01:39:01;;;;;;;8.70;4.50;;;;;;;24.60;39.24;100309.17;117111;1188;21878;-63
2022/07/31 01:41:31;;;;;;;10.80;5.10;;;;;;;24.59;39.20;100308.20;117013;1187;24166;-62
2022/07/31 01:43:58;;;;;;;12.20;4.70;;;;;;;24.59;39.11;100308.00;117031;1186;22178;-62
2022/07/31 01:46:25;;;;;;;8.90;4.80;;;;;;;24.57;39.30;100307.44;117020;1187;23558;-62
2022/07/31 01:48:53;;;;;;;12.10;4.80;;;;;;;24.55;39.22;100305.80;117192;1184;22995;-63
2022/07/31 01:51:22;;;;;;;9.20;5.00;;;;;;;24.52;39.33;100306.70;117294;1185;22710;-63
2022/07/31 01:53:49;;;;;;;8.20;4.70;;;;;;;24.51;39.29;100303.94;117078;1185;21862;-63
2022/07/31 01:56:17;;;;;;;10.70;4.70;;;;;;;24.49;39.35;100303.52;117125;1184;22900;-58
2022/07/31 01:58:43;;;;;;;11.00;4.90;;;;;;;24.47;39.28;100301.66;116964;1187;21857;-57
2022/07/31 02:01:11;;;;;;;12.50;5.10;;;;;;;24.46;39.29;100300.28;117184;1186;22929;-57
2022/07/31 02:03:38;;;;;;;10.70;5.40;;;;;;;24.45;39.28;100298.56;117035;1187;22996;-63
2022/07/31 02:06:12;;;;;;;13.30;5.30;;;;;;;24.44;39.40;100297.95;117274;1186;21885;-57
2022/07/31 02:08:38;;;;;;;12.80;4.40;;;;;;;24.44;39.30;100297.99;117156;1186;22176;-62
2022/07/31 02:11:05;;;;;;;11.10;5.00;;;;;;;24.42;39.29;100296.50;117110;1187;23576;-63
2022/07/31 02:13:34;;;;;;;9.80;4.60;;;;;;;24.40;39.26;100295.76;117058;1186;23579;-62
2022/07/31 02:16:01;;;;;;;9.60;4.40;;;;;;;24.38;39.34;100296.08;116918;1184;21873;-62
2022/07/31 02:18:31;;;;;;;7.80;4.10;;;;;;;24.36;39.30;100294.42;117036;1187;22017;-57
2022/07/31 02:20:58;;;;;;;5.30;4.00;;;;;;;24.33;39.42;100296.19;117122;1186;22658;-62
2022/07/31 02:23:25;;;;;;;10.30;4.70;;;;;;;24.31;39.39;100296.20;117084;1183;22930;-62
2022/07/31 02:25:52;;;;;;;9.30;3.90;;;;;;;24.29;39.33;100289.36;117059;1187;24194;-62
2022/07/31 02:28:19;;;;;;;7.70;3.70;;;;;;;24.27;39.45;100287.51;116922;1189;21846;-57
2022/07/31 02:30:47;;;;;;;8.30;3.70;;;;;;;24.25;39.55;100286.92;117271;1182;23579;-62
2022/07/31 02:33:22;;;;;;;12.00;3.80;;;;;;;24.23;39.44;100282.79;117265;1182;23462;-62
2022/07/31 02:35:52;;;;;;;9.90;4.00;;;;;;;24.20;39.46;100282.59;117130;1186;22624;-63
2022/07/31 02:38:20;;;;;;;6.50;3.80;;;;;;;24.19;39.46;100282.85;117189;1186;23490;-62
2022/07/31 02:40:57;;;;;;;7.80;3.80;;;;;;;24.17;39.40;100282.65;117238;1185;21858;-63
2022/07/31 02:43:25;;;;;;;6.70;3.60;;;;;;;24.16;39.53;100285.10;117098;1186;21856;-57
2022/07/31 02:45:56;;;;;;;5.00;3.10;;;;;;;24.14;39.59;100283.39;117100;1186;22098;-63
2022/07/31 02:48:24;;;;;;;11.60;4.60;;;;;;;24.13;39.51;100284.91;117042;1188;22918;-62
2022/07/31 02:50:51;;;;;;;7.00;4.20;;;;;;;24.12;39.48;100286.40;117150;1186;22651;-58
2022/07/31 02:53:18;;;;;;;9.50;3.30;;;;;;;24.11;39.62;100285.42;117104;1184;23554;-57
2022/07/31 02:55:45;;;;;;;7.90;3.70;;;;;;;24.10;39.78;100282.98;117291;1185;22923;-62
2022/07/31 02:58:13;;;;;;;11.30;3.40;;;;;;;24.09;39.75;100285.55;117006;1189;22958;-62
2022/07/31 03:00:40;;;;;;;6.60;3.70;;;;;;;24.08;39.61;100287.77;117283;1186;23628;-56
2022/07/31 03:03:07;;;;;;;16.10;4.30;;;;;;;24.05;39.74;100287.46;117090;1189;21857;-57
2022/07/31 03:05:34;;;;;;;13.30;4.50;;;;;;;24.01;39.83;100287.16;117280;1182;21854;-63
2022/07/31 03:08:01;;;;;;;11.50;4.10;;;;;;;23.99;39.87;100284.09;117251;1180;23121;-57
2022/07/31 03:10:29;;;;;;;19.50;4.70;;;;;;;24.00;39.96;100281.20;117198;1181;24162;-57
2022/07/31 03:12:56;;;;;;;10.60;4.30;;;;;;;24.02;40.01;100282.08;117102;1188;23560;-63
2022/07/31 03:15:24;;;;;;;17.80;4.80;;;;;;;24.05;39.89;100279.70;117240;1186;23816;-57
2022/07/31 03:17:52;;;;;;;11.90;4.50;;;;;;;24.07;40.06;100281.88;117115;1186;22329;-57
2022/07/31 03:20:19;;;;;;;15.50;4.00;;;;;;;24.11;40.06;100282.77;117309;1186;21899;-57
2022/07/31 03:22:46;;;;;;;12.90;4.20;;;;;;;24.13;40.02;100280.09;116935;1183;24223;-63
2022/07/31 03:25:13;;;;;;;11.60;4.00;;;;;;;24.16;40.00;100273.58;117187;1186;23577;-57
2022/07/31 03:27:49;;;;;;;6.70;3.90;;;;;;;24.20;40.03;100269.17;117010;1188;21900;-63
2022/07/31 03:30:23;;;;;;;10.20;4.50;;;;;;;24.22;40.14;100268.33;117132;1183;22330;-62
2022/07/31 03:32:52;;;;;;;7.60;4.10;;;;;;;24.24;40.15;100266.04;117251;1185;21890;-62
2022/07/31 03:35:19;;;;;;;7.90;4.10;;;;;;;24.27;40.11;100261.36;117276;1182;23573;-57
2022/07/31 03:37:46;;;;;;;9.10;4.20;;;;;;;24.30;40.19;100261.48;117169;1185;22181;-57
2022/07/31 03:40:13;;;;;;;10.10;4.90;;;;;;;24.34;40.23;100260.44;117107;1181;23820;-58
2022/07/31 03:42:40;;;;;;;6.70;4.60;;;;;;;24.39;40.22;100258.73;117254;1186;23570;-57
2022/07/31 03:45:08;;;;;;;8.70;4.30;;;;;;;24.43;40.16;100255.68;117182;1183;22977;-57
2022/07/31 03:47:35;;;;;;;10.80;4.80;;;;;;;24.48;40.19;100255.89;117081;1183;22973;-62
2022/07/31 03:50:03;;;;;;;8.20;4.50;;;;;;;24.53;40.13;100257.48;117106;1184;24309;-63
2022/07/31 03:52:30;;;;;;;9.10;5.00;;;;;;;24.59;40.08;100256.75;117225;1183;23167;-57
2022/07/31 03:54:57;;;;;;;15.70;5.80;;;;;;;24.64;40.15;100252.38;116986;1183;22930;-57
2022/07/31 03:57:24;;;;;;;11.20;5.10;;;;;;;24.71;40.03;100251.91;117072;1184;21981;-58
2022/07/31 03:59:56;;;;;;;9.50;4.70;;;;;;;24.77;40.07;100247.84;117104;1187;21857;-57
2022/07/31 04:02:26;;;;;;;8.00;4.70;;;;;;;24.84;39.96;100246.86;117159;1187;21872;-58
2022/07/31 04:04:53;;;;;;;10.50;4.50;;;;;;;24.91;39.98;100247.95;117259;1186;22926;-57
2022/07/31 04:07:20;;;;;;;7.80;4.50;;;;;;;24.98;39.97;100248.86;117217;1187;23566;-63
2022/07/31 04:09:48;;;;;;;7.90;4.00;;;;;;;25.06;39.88;100247.90;117243;1186;24172;-57
2022/07/31 04:12:15;;;;;;;9.00;4.40;;;;;;;25.14;39.83;100249.27;117106;1188;22972;-58
2022/07/31 04:14:42;;;;;;;9.60;4.40;;;;;;;25.22;39.91;100251.17;117247;1185;23557;-57
2022/07/31 04:17:09;;;;;;;7.50;4.70;;;;;;;25.31;39.85;100249.27;117228;1183;23013;-62
2022/07/31 04:19:36;;;;;;;8.70;4.70;;;;;;;25.41;39.80;100248.89;117103;1186;22651;-63
2022/07/31 04:22:03;;;;;;;6.50;4.00;;;;;;;25.50;39.72;100245.17;117256;1181;23576;-63
2022/07/31 04:24:30;;;;;;;9.90;4.20;;;;;;;25.59;39.84;100241.40;117007;1188;21859;-58
2022/07/31 04:26:58;;;;;;;7.00;4.00;;;;;;;25.69;39.74;100245.14;117108;1186;23695;-62
2022/07/31 04:29:27;;;;;;;10.20;5.50;;;;;;;25.79;39.61;100245.61;117177;1183;22945;-62
2022/07/31 04:31:54;;;;;;;6.80;4.20;;;;;;;25.89;39.58;100240.18;117258;1186;24175;-62
2022/07/31 04:34:21;;;;;;;8.60;4.40;;;;;;;25.99;39.58;100240.77;117339;1182;24060;-57
2022/07/31 04:36:48;;;;;;;11.40;4.10;;;;;;;26.11;39.47;100241.33;117300;1183;22893;-62
2022/07/31 04:39:15;;;;;;;7.80;4.10;;;;;;;26.21;39.36;100240.68;117214;1189;23570;-57
2022/07/31 04:41:43;;;;;;;8.00;4.30;;;;;;;26.32;39.36;100237.08;117238;1180;22958;-57
2022/07/31 04:44:10;;;;;;;10.40;4.40;;;;;;;26.45;39.22;100234.64;117087;1186;24002;-63
2022/07/31 04:46:37;;;;;;;8.10;4.90;;;;;;;26.56;39.21;100228.70;117191;1187;21855;-58
2022/07/31 04:49:04;;;;;;;8.70;4.50;;;;;;;26.68;39.18;100227.02;117101;1187;23716;-57
2022/07/31 04:51:32;;;;;;;6.90;4.60;;;;;;;26.80;39.08;100227.79;117203;1183;23495;-58
2022/07/31 04:54:00;;;;;;;8.80;4.70;;;;;;;26.94;38.95;100224.39;116991;1187;22312;-58
2022/07/31 04:56:40;;;;;;;7.40;4.60;;;;;;;27.07;38.82;100224.92;117030;1185;23711;-63
2022/07/31 04:59:12;;;;;;;9.10;5.20;;;;;;;27.22;38.87;100228.11;117106;1186;21929;-62
2022/07/31 05:01:39;;;;;;;6.00;4.20;;;;;;;27.35;38.69;100229.52;118127;1186;21861;-58
2022/07/31 05:04:08;;;;;;;7.70;4.50;;;;;;;27.50;38.61;100225.10;117300;1185;22109;-58
2022/07/31 05:06:36;;;;;;;9.40;4.60;;;;;;;27.65;38.49;100229.58;117233;1186;21881;-58
2022/07/31 05:09:09;;;;;;;9.90;4.40;;;;;;;27.81;38.43;100230.02;117040;1183;22926;-58
2022/07/31 05:11:44;;;;;;;6.10;4.60;;;;;;;27.95;38.12;100230.02;117158;1182;23024;-59
2022/07/31 05:14:12;;;;;;;7.90;4.30;;;;;;;28.05;38.19;100229.13;117087;1188;21855;-57
2022/07/31 05:16:39;;;;;;;6.30;4.10;;;;;;;28.15;38.19;100227.72;117218;1186;22950;-58
2022/07/31 05:19:06;;;;;;;6.90;4.90;;;;;;;28.27;38.12;100228.18;117125;1187;21856;-58
2022/07/31 05:21:41;;;;;;;7.60;5.50;;;;;;;28.43;37.96;100228.16;117047;1187;21894;-58
2022/07/31 05:24:19;;;;;;;9.40;5.80;;;;;;;28.59;37.91;100225.66;117215;1186;21850;-58
2022/07/31 05:27:03;;;;;;;10.60;5.10;;;;;;;28.81;37.78;100223.07;117134;1188;21889;-58
2022/07/31 05:29:31;;;;;;;11.20;5.80;;;;;;;28.98;37.40;100221.01;117207;1186;21920;-57
2022/07/31 05:31:58;;;;;;;10.10;6.20;;;;;;;29.10;37.15;100219.55;117152;1183;22883;-57
2022/07/31 05:34:28;;;;;;;9.00;6.10;;;;;;;29.24;37.09;100222.42;117020;1182;21846;-57
2022/07/31 05:36:59;;;;;;;10.80;7.10;;;;;;;29.39;37.06;100219.05;117085;1186;23489;-57
2022/07/31 05:39:28;;;;;;;12.90;6.00;;;;;;;29.56;36.66;100218.79;117129;1187;21858;-57
2022/07/31 05:41:55;;;;;;;9.80;6.80;;;;;;;29.65;36.85;100222.95;117270;1185;22721;-57
2022/07/31 05:44:23;;;;;;;10.60;6.30;;;;;;;29.78;36.66;100217.34;117176;1186;22623;-58
2022/07/31 05:46:51;;;;;;;10.30;6.60;;;;;;;29.92;36.38;100214.06;117018;1185;22929;-63
2022/07/31 05:49:17;;;;;;;10.50;6.10;;;;;;;30.05;36.38;100213.11;117179;1189;22918;-58
2022/07/31 05:51:45;;;;;;;10.10;5.50;;;;;;;30.19;36.26;100213.61;117261;1186;22632;-63
2022/07/31 05:54:13;;;;;;;9.80;5.40;;;;;;;30.32;36.03;100212.52;117109;1188;21889;-63
2022/07/31 05:56:40;;;;;;;9.20;5.80;;;;;;;30.49;35.73;100208.70;117138;1186;23309;-58
2022/07/31 05:59:08;;;;;;;7.60;5.40;;;;;;;30.51;35.32;100214.09;117029;1183;21854;-58
2022/07/31 06:01:37;;;;;;;8.90;5.60;;;;;;;30.53;35.37;100211.88;117109;1188;22072;-57
2022/07/31 06:04:06;;;;;;;9.50;4.80;;;;;;;30.65;35.48;100207.67;117319;1186;23110;-62
2022/07/31 06:06:33;;;;;;;10.70;5.20;;;;;;;30.81;35.40;100204.98;117325;1182;23625;-63
2022/07/31 06:09:01;;;;;;;9.40;4.80;;;;;;;31.02;35.24;100208.92;117221;1186;22830;-59
2022/07/31 06:11:31;;;;;;;7.00;5.10;;;;;;;31.22;34.93;100205.98;117081;1182;23480;-60
2022/07/31 06:13:58;;;;;;;9.70;4.90;;;;;;;31.38;34.48;100205.56;117279;1188;21848;-58
2022/07/31 06:16:25;;;;;;;7.70;5.00;;;;;;;31.52;34.25;100205.40;117255;1188;21859;-58
2022/07/31 06:18:53;;;;;;;7.60;3.70;;;;;;;31.72;34.51;100201.58;117128;1181;22947;-58
2022/07/31 06:21:20;;;;;;;8.10;4.20;;;;;;;31.95;34.01;100200.20;117127;1187;22916;-60
2022/07/31 06:23:46;;;;;;;6.90;4.10;;;;;;;32.12;33.68;100198.65;117124;1186;21877;-61
2022/07/31 06:26:13;;;;;;;7.20;3.80;;;;;;;32.23;33.25;100197.86;117079;1182;23454;-58
2022/07/31 06:28:42;;;;;;;6.10;3.90;;;;;;;32.32;33.23;100200.34;117289;1186;23653;-59
2022/07/31 06:31:21;;;;;;;5.70;3.50;;;;;;;32.51;33.18;100198.55;117288;1186;21855;-59
2022/07/31 06:33:49;;;;;;;7.70;3.70;;;;;;;32.72;32.73;100201.14;117257;1186;21861;-64
2022/07/31 06:36:18;;;;;;;7.10;3.70;;;;;;;32.92;32.88;100195.30;117352;1186;22095;-64
2022/07/31 06:38:45;;;;;;;6.70;3.70;;;;;;;33.12;32.70;100197.70;117237;1185;22621;-61
2022/07/31 06:41:43;;;;;;;6.80;3.80;;;;;;;33.28;32.14;100198.52;117151;1186;23381;-65
2022/07/31 06:44:00;;;;;;;7.50;3.90;;;;;;;33.49;32.54;100198.88;117226;1183;23563;-64
2022/07/31 06:46:27;;;;;;;5.20;3.30;;;;;;;33.79;33.10;100194.10;117431;1186;21857;-59
2022/07/31 06:48:54;;;;;;;7.50;3.60;;;;;;;34.07;33.70;100195.59;117154;1183;24173;-59
2022/07/31 06:51:21;;;;;;;5.80;4.10;;;;;;;34.24;34.74;100193.66;117096;1188;21845;-58
2022/07/31 06:53:58;;;;;;;7.10;3.90;;;;;;;34.32;33.11;100195.91;117049;1187;21859;-59
2022/07/31 06:56:25;;;;;;;6.80;3.40;;;;;;;34.42;32.89;100192.23;117256;1186;21973;-59
2022/07/31 06:58:54;;;;;;;7.30;4.00;;;;;;;34.55;31.86;100192.11;117305;1186;23084;-60
2022/07/31 07:01:21;;;;;;;6.20;3.40;;;;;;;34.55;30.71;100192.27;117194;1188;22620;-65
2022/07/31 07:03:48;;;;;;;6.30;4.00;;;;;;;34.52;31.23;100193.55;117138;1187;22155;-65
2022/07/31 07:06:15;;;;;;;6.50;3.80;;;;;;;34.56;30.58;100187.09;117118;1182;22937;-59
2022/07/31 07:08:42;;;;;;;5.70;3.70;;;;;;;34.60;30.46;100186.65;117261;1185;21866;-60
2022/07/31 07:11:10;;;;;;;6.10;3.50;;;;;;;34.68;30.73;100184.20;117163;1183;23566;-59
2022/07/31 07:13:38;;;;;;;6.10;2.80;;;;;;;34.85;29.49;100178.05;117240;1186;21962;-66
2022/07/31 07:16:13;;;;;;;4.50;2.90;;;;;;;34.86;29.28;100176.77;117254;1186;21860;-64
2022/07/31 07:18:41;;;;;;;5.20;3.10;;;;;;;34.85;29.52;100177.64;117056;1187;21858;-59
2022/07/31 07:21:09;;;;;;;6.40;3.30;;;;;;;34.87;27.91;100180.48;117215;1189;21857;-59
2022/07/31 07:23:36;;;;;;;9.10;2.70;;;;;;;34.84;28.45;100181.06;117195;1182;22171;-63
2022/07/31 07:26:04;;;;;;;5.30;2.70;;;;;;;34.97;29.17;100183.96;117039;1187;23735;-65
2022/07/31 07:28:31;;;;;;;4.60;2.50;;;;;;;35.17;27.78;100183.17;117260;1186;22994;-65
2022/07/31 07:30:58;;;;;;;5.70;2.90;;;;;;;35.28;28.01;100184.44;117242;1183;22911;-59
2022/07/31 07:33:26;;;;;;;5.70;2.90;;;;;;;35.45;27.68;100181.13;117230;1183;22167;-64
2022/07/31 07:36:08;;;;;;;5.30;2.90;;;;;;;35.59;28.40;100176.84;117172;1186;21974;-64
2022/07/31 07:38:49;;;;;;;4.80;2.80;;;;;;;35.89;28.36;100174.48;117402;1186;21918;-64
2022/07/31 07:41:16;;;;;;;4.50;3.20;;;;;;;36.15;28.09;100171.73;117203;1186;23553;-65
2022/07/31 07:43:44;;;;;;;8.30;3.30;;;;;;;36.23;26.75;100177.05;117213;1186;22013;-59
2022/07/31 07:46:20;;;;;;;4.10;3.00;;;;;;;36.19;27.73;100171.23;117185;1182;21867;-64
2022/07/31 07:48:47;;;;;;;6.20;2.90;;;;;;;36.27;27.39;100172.93;117227;1182;23021;-64
2022/07/31 07:51:15;;;;;;;5.00;2.80;;;;;;;36.41;27.68;100172.89;117253;1186;21848;-59
2022/07/31 07:53:42;;;;;;;5.80;3.40;;;;;;;36.59;27.19;100176.08;117132;1186;21858;-59
2022/07/31 07:56:09;;;;;;;5.60;3.50;;;;;;;36.77;25.47;100180.39;117271;1183;21887;-64
2022/07/31 07:58:36;;;;;;;7.10;3.40;;;;;;;36.76;25.99;100174.48;117252;1183;24016;-59
2022/07/31 08:01:03;;;;;;;10.50;3.10;;;;;;;36.92;26.90;100169.05;117131;1183;21864;-59
2022/07/31 08:03:30;;;;;;;6.30;3.30;;;;;;;37.08;24.98;100169.34;117236;1186;23475;-59
2022/07/31 08:06:19;;;;;;;9.00;4.10;;;;;;;37.08;25.09;100169.98;117183;1186;22921;-63
2022/07/31 08:08:46;;;;;;;6.30;3.30;;;;;;;36.97;25.45;100171.00;117186;1186;23631;-59
2022/07/31 08:11:13;;;;;;;4.70;2.50;;;;;;;36.87;24.67;100165.77;117260;1182;23557;-60
2022/07/31 08:13:44;;;;;;;5.70;2.90;;;;;;;36.92;25.04;100164.09;117236;1186;21889;-64
2022/07/31 08:16:17;;;;;;;6.00;3.60;;;;;;;36.90;24.79;100163.34;117192;1186;23023;-63
2022/07/31 08:18:44;;;;;;;5.30;3.20;;;;;;;36.90;24.05;100159.02;118110;1186;23926;-63
2022/07/31 08:21:11;;;;;;;6.10;3.20;;;;;;;36.88;23.56;100156.53;117189;1183;23695;-59
2022/07/31 08:23:38;;;;;;;4.40;2.60;;;;;;;36.78;24.38;100153.23;117095;1189;23531;-63
2022/07/31 08:26:07;;;;;;;6.40;3.60;;;;;;;36.84;23.87;100150.80;117236;1182;23605;-59
2022/07/31 08:28:34;;;;;;;4.70;3.40;;;;;;;36.77;22.99;100150.61;117195;1182;23532;-63
2022/07/31 08:31:02;;;;;;;4.50;3.20;;;;;;;36.68;23.66;100152.81;117281;1187;22920;-59
2022/07/31 08:33:29;;;;;;;6.50;3.40;;;;;;;36.79;24.54;100149.08;117263;1183;22914;-63
2022/07/31 08:35:56;;;;;;;6.90;3.30;;;;;;;36.95;23.73;100142.85;117267;1183;23583;-64
2022/07/31 08:38:23;;;;;;;4.80;3.70;;;;;;;36.90;23.05;100136.55;117122;1182;22919;-60
2022/07/31 08:40:50;;;;;;;7.00;3.50;;;;;;;36.99;24.01;100137.74;117251;1183;21893;-64
2022/07/31 08:43:17;;;;;;;6.30;2.90;;;;;;;37.32;23.78;100135.91;117166;1188;22717;-63
2022/07/31 08:46:06;;;;;;;5.90;2.90;;;;;;;37.49;23.30;100135.91;117221;1182;23003;-64
2022/07/31 08:48:33;;;;;;;6.40;3.20;;;;;;;37.73;23.70;100126.57;117237;1180;23643;-59
2022/07/31 08:51:02;;;;;;;5.20;3.30;;;;;;;38.06;23.33;100123.38;117258;1183;24189;-64
2022/07/31 08:53:29;;;;;;;6.80;3.60;;;;;;;38.38;23.11;100121.48;117073;1189;21924;-59
2022/07/31 08:55:57;;;;;;;6.00;3.50;;;;;;;38.60;23.19;100119.91;117143;1182;23583;-65
2022/07/31 08:58:24;;;;;;;5.70;3.50;;;;;;;38.89;23.47;100117.31;117239;1186;23691;-63
2022/07/31 09:00:52;;;;;;;6.60;3.60;;;;;;;39.14;22.37;100108.88;116988;1188;22933;-59
2022/07/31 09:03:19;;;;;;;5.90;3.00;;;;;;;39.37;23.30;100105.59;116976;1189;21845;-60
2022/07/31 09:05:46;;;;;;;6.40;4.30;;;;;;;39.70;23.05;100109.42;117189;1186;21867;-59
2022/07/31 09:08:13;;;;;;;8.30;5.50;;;;;;;40.02;23.12;100110.01;117277;1185;22928;-63
2022/07/31 09:10:41;;;;;;;8.30;5.10;;;;;;;40.33;22.97;100106.92;117127;1188;22940;-59
2022/07/31 09:13:16;;;;;;;8.00;5.60;;;;;;;40.46;21.15;100104.62;117305;1186;23340;-59
2022/07/31 09:15:44;;;;;;;8.40;5.00;;;;;;;40.26;21.23;100100.42;117244;1186;23558;-63
2022/07/31 09:18:18;;;;;;;11.30;5.20;;;;;;;40.13;21.67;100099.31;117242;1185;23598;-59
2022/07/31 09:20:53;;;;;;;17.40;6.30;;;;;;;40.09;21.11;100099.00;117224;1186;21858;-59
2022/07/31 09:23:21;;;;;;;8.80;5.00;;;;;;;40.15;21.83;100098.48;117239;1186;21857;-59
2022/07/31 09:25:55;;;;;;;9.60;5.60;;;;;;;40.36;22.02;100093.66;117285;1186;23711;-60
2022/07/31 09:28:36;;;;;;;5.90;5.00;;;;;;;40.71;21.67;100091.50;117170;1183;23603;-59
2022/07/31 09:31:04;;;;;;;5.90;4.80;;;;;;;40.99;21.29;100085.39;117321;1186;21864;-64
2022/07/31 09:33:32;;;;;;;7.60;5.40;;;;;;;41.02;19.74;100087.96;117287;1182;23712;-63
2022/07/31 09:36:00;;;;;;;5.60;4.90;;;;;;;40.68;20.06;100086.90;117271;1186;21883;-59
2022/07/31 09:38:32;;;;;;;8.20;4.90;;;;;;;40.66;20.72;100087.90;117309;1186;23652;-64
2022/07/31 09:41:16;;;;;;;9.80;4.50;;;;;;;40.60;19.23;100086.02;117248;1183;24707;-60
2022/07/31 09:44:03;;;;;;;6.10;4.40;;;;;;;40.22;20.43;100081.48;117178;1189;23541;-64
2022/07/31 09:46:41;;;;;;;6.70;4.00;;;;;;;40.22;20.72;100079.00;117101;1187;22913;-63
2022/07/31 09:49:08;;;;;;;7.50;4.30;;;;;;;40.54;20.71;100074.36;117108;1182;21848;-60
2022/07/31 09:51:43;;;;;;;7.80;5.00;;;;;;;41.00;20.41;100069.48;117313;1186;23000;-59
2022/07/31 09:54:24;;;;;;;6.80;5.20;;;;;;;41.05;18.81;100073.38;117176;1185;21876;-64
2022/07/31 09:56:51;;;;;;;8.10;5.70;;;;;;;40.60;19.35;100073.13;117160;1187;21856;-60
2022/07/31 09:59:18;;;;;;;8.50;4.90;;;;;;;40.41;19.78;100068.39;117185;1183;21848;-60
2022/07/31 10:01:47;;;;;;;8.30;5.10;;;;;;;40.39;19.62;100063.58;117206;1188;23370;-63
2022/07/31 10:04:19;;;;;;;6.50;4.70;;;;;;;40.56;20.20;100060.02;117070;1182;22914;-60
2022/07/31 10:06:47;;;;;;;7.90;5.50;;;;;;;40.99;20.30;100061.58;117188;1182;23555;-60
2022/07/31 10:09:14;;;;;;;7.00;5.20;;;;;;;41.47;20.12;100056.87;117288;1182;22992;-60
2022/07/31 10:11:42;;;;;;;7.80;5.70;;;;;;;41.87;19.74;100053.77;117190;1182;21966;-59
2022/07/31 10:14:15;;;;;;;6.60;5.00;;;;;;;42.18;19.75;100048.67;117143;1189;23638;-60
2022/07/31 10:16:42;;;;;;;6.80;5.20;;;;;;;42.52;19.56;100041.55;117192;1186;21859;-65
2022/07/31 10:19:11;;;;;;;9.80;5.20;;;;;;;42.85;19.65;100038.52;116981;1186;22975;-64
2022/07/31 10:21:42;;;;;;;6.60;5.10;;;;;;;43.23;19.29;100034.41;117247;1182;21977;-63
2022/07/31 10:24:10;;;;;;;6.30;5.00;;;;;;;43.53;19.22;100032.20;117245;1183;21918;-64
2022/07/31 10:26:37;;;;;;;7.70;4.50;;;;;;;43.77;19.08;100028.59;117168;1187;22989;-60
2022/07/31 10:29:25;;;;;;;7.70;4.60;;;;;;;43.87;19.00;100025.65;117236;1188;22428;-63
2022/07/31 10:31:58;;;;;;;6.30;4.50;;;;;;;43.81;18.90;100026.33;117059;1183;22094;-60
2022/07/31 10:34:26;;;;;;;7.50;5.10;;;;;;;43.57;18.40;100022.20;117156;1189;23452;-64
2022/07/31 10:36:53;;;;;;;5.50;4.70;;;;;;;43.03;18.10;100017.56;117186;1186;24184;-64
2022/07/31 10:39:33;;;;;;;6.20;4.50;;;;;;;42.38;17.87;100016.38;117312;1183;22837;-64
2022/07/31 10:42:27;;;;;;;;;;;;;;;41.74;18.25;100016.70;117287;1186;22633;-64
2022/07/31 10:45:16;;;;;;;6.60;4.20;;;;;;;41.37;18.62;100021.64;117189;1186;22071;-61
2022/07/31 10:47:56;;;;;;;7.40;4.90;;;;;;;41.15;18.68;100021.13;117316;1185;21870;-61
2022/07/31 10:50:25;;;;;;;5.30;4.50;;;;;;;41.05;18.57;100015.59;117303;1189;22898;-61
2022/07/31 10:52:53;;;;;;;7.30;4.30;;;;;;;41.12;18.70;100012.51;117273;1189;21873;-64
2022/07/31 10:55:28;;;;;;;8.30;4.40;;;;;;;41.28;18.42;100008.63;117248;1188;22105;-61
2022/07/31 10:58:05;;;;;;;9.10;4.20;;;;;;;41.51;18.94;100009.48;117091;1186;22969;-65
2022/07/31 11:00:33;;;;;;;6.30;4.00;;;;;;;41.93;18.32;100002.64;117264;1186;24182;-65
2022/07/31 11:03:21;;;;;;;7.50;4.50;;;;;;;42.17;17.68;99996.73;117209;1189;22483;-61
2022/07/31 11:05:58;;;;;;;7.20;3.90;;;;;;;42.05;17.64;99991.98;117232;1185;22648;-64
2022/07/31 11:08:40;;;;;;;6.40;4.10;;;;;;;42.04;18.07;99986.90;117046;1182;22296;-60
2022/07/31 11:11:08;;;;;;;6.40;3.90;;;;;;;42.15;17.76;99983.21;117298;1186;22988;-60
2022/07/31 11:13:46;;;;;;;4.80;3.90;;;;;;;42.09;17.96;99984.20;117308;1185;21853;-65
2022/07/31 11:16:13;;;;;;;10.50;4.20;;;;;;;42.28;18.55;99980.20;117269;1183;23565;-60
2022/07/31 11:18:40;;;;;;;5.50;4.00;;;;;;;42.63;17.99;99977.83;117300;1186;23452;-64
2022/07/31 11:21:08;;;;;;;6.50;4.20;;;;;;;42.84;18.09;99971.17;117246;1183;24150;-61
2022/07/31 11:23:55;;;;;;;7.60;3.90;;;;;;;43.24;18.20;99967.82;117193;1187;22927;-61
2022/07/31 11:26:31;;;;;;;11.60;4.20;;;;;;;43.64;18.02;99962.90;117172;1185;21860;-60
2022/07/31 11:29:11;;;;;;;8.00;4.20;;;;;;;43.92;17.78;99961.05;117317;1186;21932;-62